Time;durP1;ratioP1;P1;durP2;ratioP2;P2;SDS_P1;SDS_P2;PMS_P1;PMS_P2;Temp;Humidity;BMP_temperature;BMP_pressure;BME280_temperature;BME280_humidity;BME280_pressure;Samples;Min_cycle;Max_cycle;Signal;HPM_P1;HPM_P2
2024/01/29 00:01:20;;;;;;;8.82;4.43;;;4.90;95.60;;;;;;6240883;23;20174;-73
2024/01/29 00:04:06;;;;;;;7.30;3.88;;;4.80;95.60;;;;;;6242932;23;20066;-74
2024/01/29 00:06:52;;;;;;;9.50;4.43;;;4.80;95.60;;;;;;6242050;23;20024;-73
2024/01/29 00:09:38;;;;;;;9.20;4.63;;;4.80;95.60;;;;;;6241950;23;20086;-73
2024/01/29 00:12:24;;;;;;;8.43;3.92;;;4.80;95.60;;;;;;6240710;23;20471;-74
2024/01/29 00:15:10;;;;;;;6.10;4.05;;;4.80;95.60;;;;;;6241295;23;20109;-73
2024/01/29 00:17:56;;;;;;;9.98;3.97;;;4.70;95.60;;;;;;6240442;23;20012;-74
2024/01/29 00:20:42;;;;;;;8.55;4.82;;;4.80;95.60;;;;;;6241096;23;20070;-73
2024/01/29 00:23:27;;;;;;;6.25;3.95;;;4.70;95.60;;;;;;6240999;23;20074;-73
2024/01/29 00:26:13;;;;;;;8.07;5.53;;;4.70;95.60;;;;;;6242432;23;20023;-72
2024/01/29 00:28:59;;;;;;;11.00;5.93;;;4.70;95.60;;;;;;6240781;23;20012;-73
2024/01/29 00:31:45;;;;;;;10.20;4.60;;;4.60;95.50;;;;;;6240988;23;20008;-73
2024/01/29 00:34:31;;;;;;;6.95;4.18;;;4.60;95.50;;;;;;6240604;23;20012;-73
2024/01/29 00:37:17;;;;;;;7.80;4.95;;;4.60;95.60;;;;;;6242458;23;20015;-73
2024/01/29 00:40:04;;;;;;;8.95;4.38;;;4.60;95.60;;;;;;6240511;23;20016;-73
2024/01/29 00:42:50;;;;;;;8.15;4.13;;;4.60;95.60;;;;;;6242446;23;20467;-73
2024/01/29 00:45:36;;;;;;;6.40;4.18;;;4.60;95.60;;;;;;6238652;23;20381;-72
2024/01/29 00:48:24;;;;;;;8.80;4.40;;;4.50;95.60;;;;;;6240879;23;20027;-73
2024/01/29 00:51:10;;;;;;;12.57;4.22;;;4.50;95.60;;;;;;6219519;23;20012;-73
2024/01/29 00:53:56;;;;;;;7.78;3.83;;;4.50;95.60;;;;;;6240527;23;20039;-72
2024/01/29 00:56:42;;;;;;;10.38;4.22;;;4.50;95.60;;;;;;6219377;23;20019;-73
2024/01/29 00:59:28;;;;;;;8.75;4.28;;;4.50;95.70;;;;;;6219500;23;20012;-73
2024/01/29 01:02:14;;;;;;;8.10;4.68;;;4.50;95.70;;;;;;6240390;23;20330;-72
2024/01/29 01:05:00;;;;;;;8.65;4.78;;;4.40;95.60;;;;;;6240076;23;20016;-72
2024/01/29 01:07:46;;;;;;;10.50;4.05;;;4.40;95.60;;;;;;6240474;23;20004;-73
2024/01/29 01:10:32;;;;;;;10.07;4.50;;;4.40;95.60;;;;;;6241090;23;20174;-73
2024/01/29 01:13:18;;;;;;;8.00;4.25;;;4.40;95.70;;;;;;6269294;22;20012;-73
2024/01/29 01:16:04;;;;;;;8.75;5.05;;;4.30;95.70;;;;;;6266924;23;20456;-72
2024/01/29 01:18:50;;;;;;;6.00;3.92;;;4.40;95.70;;;;;;6257159;23;20015;-72
2024/01/29 01:21:36;;;;;;;7.97;4.22;;;4.40;95.70;;;;;;6255954;23;20020;-71
2024/01/29 01:24:22;;;;;;;7.43;4.30;;;4.40;95.70;;;;;;6243440;23;20017;-72
2024/01/29 01:27:08;;;;;;;7.05;4.80;;;4.30;95.70;;;;;;6242902;23;20097;-72
2024/01/29 01:29:54;;;;;;;9.15;4.57;;;4.30;95.70;;;;;;6242027;23;20413;-71
2024/01/29 01:32:40;;;;;;;7.10;4.93;;;4.30;95.70;;;;;;6241171;23;20012;-72
2024/01/29 01:35:26;;;;;;;7.40;3.85;;;4.30;95.70;;;;;;6240189;23;20036;-72
2024/01/29 01:38:12;;;;;;;7.70;3.88;;;4.20;95.70;;;;;;6242069;23;20016;-72
2024/01/29 01:40:58;;;;;;;8.60;4.80;;;4.20;95.80;;;;;;6239015;23;20335;-71
2024/01/29 01:43:44;;;;;;;8.93;4.35;;;4.20;95.70;;;;;;6240388;23;20012;-72
2024/01/29 01:46:30;;;;;;;9.88;5.05;;;4.20;95.70;;;;;;6242828;23;20016;-72
2024/01/29 01:49:17;;;;;;;7.75;4.32;;;4.20;95.80;;;;;;6239514;23;20365;-74
2024/01/29 01:52:04;;;;;;;7.55;3.95;;;4.10;95.70;;;;;;6241082;23;20089;-72
2024/01/29 01:54:50;;;;;;;8.10;4.70;;;4.20;95.80;;;;;;6241368;23;20008;-73
2024/01/29 01:57:38;;;;;;;11.63;5.15;;;4.20;95.80;;;;;;6242139;23;20004;-72
2024/01/29 02:00:24;;;;;;;8.27;4.40;;;4.10;95.80;;;;;;6240037;23;20071;-73
2024/01/29 02:03:11;;;;;;;10.82;4.55;;;4.10;95.80;;;;;;6241265;23;20012;-73
2024/01/29 02:05:57;;;;;;;7.95;4.55;;;4.10;95.90;;;;;;6241792;23;20070;-73
2024/01/29 02:08:43;;;;;;;7.43;4.60;;;4.10;95.90;;;;;;6239145;23;20008;-72
2024/01/29 02:11:29;;;;;;;10.13;5.20;;;4.10;95.90;;;;;;6241010;23;20008;-72
2024/01/29 02:14:15;;;;;;;6.95;3.90;;;4.10;95.90;;;;;;6240199;23;20070;-71
2024/01/29 02:17:01;;;;;;;6.63;4.38;;;4.00;95.90;;;;;;6239972;23;20468;-72
2024/01/29 02:19:47;;;;;;;11.15;5.22;;;4.00;95.90;;;;;;6239890;23;20349;-72
2024/01/29 02:22:33;;;;;;;9.63;5.03;;;4.00;96.00;;;;;;6239517;23;20030;-71
2024/01/29 02:25:18;;;;;;;9.68;5.28;;;4.00;96.00;;;;;;6241558;23;20035;-63
2024/01/29 02:28:04;;;;;;;10.30;5.05;;;4.00;96.00;;;;;;6243289;23;20020;-63
2024/01/29 02:30:50;;;;;;;10.32;4.88;;;4.00;96.00;;;;;;6221138;23;20453;-63
2024/01/29 02:33:36;;;;;;;8.85;5.00;;;4.00;96.00;;;;;;6220998;23;20007;-63
2024/01/29 02:36:22;;;;;;;10.02;5.55;;;4.00;96.00;;;;;;6241711;23;20388;-63
2024/01/29 02:39:08;;;;;;;7.68;4.38;;;4.00;96.20;;;;;;6243496;23;20040;-63
2024/01/29 02:41:54;;;;;;;7.65;4.60;;;4.10;96.10;;;;;;6241926;23;20024;-63
2024/01/29 02:44:40;;;;;;;8.40;4.82;;;4.00;96.10;;;;;;6241928;23;20034;-63
2024/01/29 02:47:26;;;;;;;9.48;5.10;;;4.00;96.10;;;;;;6245459;22;20012;-62
2024/01/29 02:50:12;;;;;;;11.60;4.80;;;4.00;96.10;;;;;;6242070;23;20012;-63
2024/01/29 02:52:58;;;;;;;9.15;4.70;;;4.00;96.10;;;;;;6242752;23;20039;-63
2024/01/29 02:55:44;;;;;;;8.18;4.35;;;4.00;96.10;;;;;;6242909;23;20020;-63
2024/01/29 02:58:31;;;;;;;9.48;4.22;;;4.00;96.10;;;;;;6241632;23;20022;-63
2024/01/29 03:01:19;;;;;;;8.80;4.28;;;4.00;96.10;;;;;;6242211;23;20067;-63
2024/01/29 03:04:05;;;;;;;7.30;4.60;;;4.00;96.10;;;;;;6240942;23;20003;-63
2024/01/29 03:06:51;;;;;;;8.95;5.13;;;4.00;96.10;;;;;;6242862;23;20092;-63
2024/01/29 03:09:40;;;;;;;9.48;4.38;;;3.90;96.10;;;;;;6241728;23;20007;-62
2024/01/29 03:12:25;;;;;;;10.45;5.18;;;4.00;96.20;;;;;;6242356;23;20004;-64
2024/01/29 03:15:12;;;;;;;8.25;5.20;;;3.90;96.20;;;;;;6240849;23;20019;-64
2024/01/29 03:17:58;;;;;;;10.02;4.90;;;3.90;96.20;;;;;;6244737;22;20007;-64
2024/01/29 03:20:44;;;;;;;7.53;5.07;;;3.90;96.20;;;;;;6241630;23;20027;-64
2024/01/29 03:23:30;;;;;;;9.98;5.07;;;3.90;96.20;;;;;;6241524;23;20055;-63
2024/01/29 03:26:16;;;;;;;9.27;5.07;;;3.90;96.30;;;;;;6242132;23;20445;-64
2024/01/29 03:29:02;;;;;;;6.20;4.20;;;3.90;96.30;;;;;;6241989;23;20016;-64
2024/01/29 03:31:49;;;;;;;10.30;4.82;;;3.80;96.30;;;;;;6242105;23;20043;-64
2024/01/29 03:34:35;;;;;;;14.88;5.57;;;3.80;96.30;;;;;;6242494;23;20058;-64
2024/01/29 03:37:21;;;;;;;14.13;5.75;;;3.80;96.30;;;;;;6219331;23;20061;-63
2024/01/29 03:40:08;;;;;;;8.88;5.07;;;3.70;96.30;;;;;;6241748;23;20020;-63
2024/01/29 03:42:54;;;;;;;8.20;5.20;;;3.70;96.30;;;;;;6241684;23;20098;-64
2024/01/29 03:45:39;;;;;;;9.43;4.90;;;3.60;96.30;;;;;;6241006;23;20012;-63
2024/01/29 03:48:26;;;;;;;9.38;4.45;;;3.70;96.40;;;;;;6239593;23;20103;-63
2024/01/29 03:51:12;;;;;;;9.32;5.47;;;3.60;96.40;;;;;;6242540;23;20437;-63
2024/01/29 03:53:58;;;;;;;8.10;4.93;;;3.60;96.40;;;;;;6241457;23;20341;-63
2024/01/29 03:56:44;;;;;;;9.02;5.00;;;3.50;96.40;;;;;;6241124;23;20441;-63
2024/01/29 03:59:33;;;;;;;8.05;4.63;;;3.50;96.40;;;;;;6242008;23;20008;-63
2024/01/29 04:02:19;;;;;;;8.25;4.82;;;3.50;96.50;;;;;;6242089;23;20134;-63
2024/01/29 04:05:08;;;;;;;8.48;5.05;;;3.50;96.50;;;;;;6240907;23;20438;-63
2024/01/29 04:07:53;;;;;;;10.48;5.15;;;3.50;96.50;;;;;;6242385;23;20015;-64
2024/01/29 04:10:39;;;;;;;10.63;5.35;;;3.40;96.50;;;;;;6238706;23;20012;-63
2024/01/29 04:13:25;;;;;;;12.77;5.25;;;3.40;96.60;;;;;;6240863;23;20004;-63
2024/01/29 04:16:11;;;;;;;10.98;6.60;;;3.40;96.60;;;;;;6240142;23;20026;-63
2024/01/29 04:18:57;;;;;;;12.13;6.03;;;3.40;96.60;;;;;;6242438;23;20083;-72
2024/01/29 04:21:43;;;;;;;11.52;6.13;;;3.40;96.70;;;;;;6241568;23;20051;-73
2024/01/29 04:24:29;;;;;;;10.45;6.50;;;3.40;96.70;;;;;;6241018;23;20469;-73
2024/01/29 04:27:15;;;;;;;10.55;6.07;;;3.40;96.70;;;;;;6240970;23;20008;-72
2024/01/29 04:30:02;;;;;;;11.02;5.93;;;3.40;96.80;;;;;;6242338;23;20048;-73
2024/01/29 04:32:48;;;;;;;15.07;6.82;;;3.30;96.80;;;;;;6242517;23;20440;-73
2024/01/29 04:35:35;;;;;;;10.85;5.65;;;3.30;96.80;;;;;;6243114;23;20012;-73
2024/01/29 04:38:21;;;;;;;11.07;5.70;;;3.30;96.80;;;;;;6241432;23;20012;-74
2024/01/29 04:41:07;;;;;;;11.63;6.47;;;3.30;96.80;;;;;;6266986;23;20039;-75
2024/01/29 04:43:53;;;;;;;19.92;6.60;;;3.30;96.90;;;;;;6267376;23;20035;-75
2024/01/29 04:46:38;;;;;;;14.18;6.50;;;3.30;96.90;;;;;;6264035;23;20127;-75
2024/01/29 04:49:24;;;;;;;11.30;5.93;;;3.30;96.90;;;;;;6264142;23;20039;-75
2024/01/29 04:52:10;;;;;;;11.52;5.70;;;3.30;96.90;;;;;;6242344;23;20031;-75
2024/01/29 04:54:56;;;;;;;11.70;6.00;;;3.30;97.00;;;;;;6242289;23;20091;-73
2024/01/29 04:57:42;;;;;;;9.27;6.68;;;3.30;97.00;;;;;;6220198;23;20008;-76
2024/01/29 05:00:28;;;;;;;12.18;5.93;;;3.20;97.00;;;;;;6240546;23;20425;-76
2024/01/29 05:03:14;;;;;;;11.10;5.75;;;3.20;97.00;;;;;;6239349;23;20027;-69
2024/01/29 05:06:00;;;;;;;22.73;8.05;;;3.30;97.10;;;;;;6240111;23;20012;-71
2024/01/29 05:08:46;;;;;;;14.00;5.97;;;3.30;97.10;;;;;;6240226;23;20019;-70
2024/01/29 05:11:32;;;;;;;9.57;6.43;;;3.30;97.10;;;;;;6219746;23;20004;-70
2024/01/29 05:14:18;;;;;;;8.82;6.05;;;3.20;97.10;;;;;;6240586;23;20133;-69
2024/01/29 05:17:04;;;;;;;10.05;6.15;;;3.20;97.20;;;;;;6218874;23;20000;-69
2024/01/29 05:19:50;;;;;;;11.98;6.30;;;3.20;97.20;;;;;;6239787;23;20008;-68
2024/01/29 05:22:36;;;;;;;8.65;5.90;;;3.20;97.20;;;;;;6239646;23;20074;-69
2024/01/29 05:25:22;;;;;;;9.70;6.03;;;3.20;97.20;;;;;;6241533;23;20059;-69
2024/01/29 05:28:08;;;;;;;8.95;6.13;;;3.20;97.30;;;;;;6242448;23;20034;-70
2024/01/29 05:30:54;;;;;;;10.93;5.18;;;3.20;97.30;;;;;;6240354;23;20019;-70
2024/01/29 05:33:40;;;;;;;11.15;6.28;;;3.20;97.30;;;;;;6240626;23;20392;-69
2024/01/29 05:36:26;;;;;;;9.05;5.82;;;3.20;97.30;;;;;;6238111;23;20010;-70
2024/01/29 05:39:12;;;;;;;9.57;5.88;;;3.20;97.30;;;;;;6240327;23;20572;-70
2024/01/29 05:41:58;;;;;;;11.80;6.78;;;3.30;97.40;;;;;;6239787;23;20166;-69
2024/01/29 05:44:44;;;;;;;11.60;5.80;;;3.20;97.40;;;;;;6240029;23;20471;-69
2024/01/29 05:47:30;;;;;;;12.65;6.75;;;3.20;97.40;;;;;;6243771;22;20451;-69
2024/01/29 05:50:16;;;;;;;12.40;6.57;;;3.20;97.40;;;;;;6239547;23;20059;-69
2024/01/29 05:53:02;;;;;;;13.75;6.13;;;3.20;97.40;;;;;;6239976;23;20062;-70
2024/01/29 05:55:48;;;;;;;9.70;5.68;;;3.20;97.40;;;;;;6239596;23;20008;-70
2024/01/29 05:58:36;;;;;;;9.10;5.82;;;3.20;97.50;;;;;;6241484;23;20016;-71
2024/01/29 06:01:22;;;;;;;14.52;6.10;;;3.20;97.50;;;;;;6242288;23;20357;-71
2024/01/29 06:04:08;;;;;;;14.80;6.75;;;3.20;97.50;;;;;;6220799;23;20062;-70
2024/01/29 06:06:54;;;;;;;11.13;6.18;;;3.20;97.50;;;;;;6241377;23;20012;-71
2024/01/29 06:09:40;;;;;;;13.10;6.47;;;3.20;97.50;;;;;;6243797;23;20086;-70
2024/01/29 06:12:26;;;;;;;13.48;6.50;;;3.30;97.50;;;;;;6240663;23;20012;-70
2024/01/29 06:15:12;;;;;;;14.43;6.50;;;3.20;97.50;;;;;;6241080;23;20045;-70
2024/01/29 06:17:58;;;;;;;13.23;5.80;;;3.20;97.50;;;;;;6241515;23;20066;-70
2024/01/29 06:20:44;;;;;;;10.95;5.95;;;3.30;97.60;;;;;;6241848;23;20047;-70
2024/01/29 06:23:30;;;;;;;9.80;6.18;;;3.30;97.60;;;;;;6242198;23;20011;-71
2024/01/29 06:26:15;;;;;;;12.57;6.90;;;3.30;97.60;;;;;;6241426;23;20016;-69
2024/01/29 06:29:02;;;;;;;9.23;6.03;;;3.30;97.60;;;;;;6243235;23;20089;-70
2024/01/29 06:31:48;;;;;;;12.35;6.32;;;3.20;97.50;;;;;;6241384;23;20035;-70
2024/01/29 06:34:35;;;;;;;12.75;6.25;;;3.20;97.50;;;;;;6241779;23;20087;-70
2024/01/29 06:37:21;;;;;;;11.45;6.32;;;3.20;97.50;;;;;;6241917;23;20491;-71
2024/01/29 06:40:08;;;;;;;9.23;5.45;;;3.20;97.50;;;;;;6241328;23;20019;-70
2024/01/29 06:42:55;;;;;;;11.48;6.15;;;3.20;97.50;;;;;;6241745;23;20087;-70
2024/01/29 06:45:41;;;;;;;13.23;6.90;;;3.20;97.50;;;;;;6240910;23;20107;-70
2024/01/29 06:48:27;;;;;;;11.10;6.10;;;3.10;97.50;;;;;;6241449;23;20511;-70
2024/01/29 06:51:15;;;;;;;11.95;6.45;;;3.10;97.60;;;;;;6241043;23;20396;-69
2024/01/29 06:54:03;;;;;;;13.10;6.20;;;3.10;97.60;;;;;;6241695;23;20019;-69
2024/01/29 06:56:49;;;;;;;12.60;6.38;;;3.20;97.60;;;;;;6240456;23;20008;-69
2024/01/29 06:59:35;;;;;;;13.95;6.25;;;3.20;97.60;;;;;;6241139;23;20071;-69
2024/01/29 07:02:22;;;;;;;12.90;6.03;;;3.20;97.60;;;;;;6240556;23;20273;-69
2024/01/29 07:05:07;;;;;;;10.05;5.70;;;3.20;97.60;;;;;;6240573;23;20008;-68
2024/01/29 07:07:53;;;;;;;15.75;6.00;;;3.20;97.70;;;;;;6241272;23;20008;-69
2024/01/29 07:10:39;;;;;;;11.85;6.55;;;3.20;97.70;;;;;;6242458;23;20027;-68
2024/01/29 07:13:25;;;;;;;10.75;6.50;;;3.20;97.70;;;;;;6239990;23;20008;-68
2024/01/29 07:16:12;;;;;;;9.27;5.63;;;3.20;97.70;;;;;;6241108;23;20031;-68
2024/01/29 07:18:58;;;;;;;9.73;5.20;;;3.20;97.70;;;;;;6242030;23;20015;-68
2024/01/29 07:21:43;;;;;;;10.15;6.07;;;3.30;97.80;;;;;;6242897;23;20016;-68
2024/01/29 07:24:32;;;;;;;11.68;5.93;;;3.30;97.70;;;;;;6241375;23;20015;-68
2024/01/29 07:27:18;;;;;;;9.35;5.65;;;3.40;97.70;;;;;;6241568;23;20083;-68
2024/01/29 07:30:05;;;;;;;9.93;5.88;;;3.40;97.70;;;;;;6240360;23;20477;-68
2024/01/29 07:32:51;;;;;;;9.65;4.78;;;3.50;97.70;;;;;;6241309;23;20016;-69
2024/01/29 07:35:37;;;;;;;8.57;4.18;;;3.50;97.70;;;;;;6241270;23;20102;-68
2024/01/29 07:38:23;;;;;;;11.40;5.25;;;3.60;97.80;;;;;;6219121;23;20329;-68
2024/01/29 07:41:09;;;;;;;10.32;4.43;;;3.60;97.80;;;;;;6219626;23;20020;-70
2024/01/29 07:43:55;;;;;;;7.32;4.80;;;3.70;97.90;;;;;;6240366;23;20008;-69
2024/01/29 07:46:42;;;;;;;9.75;5.43;;;3.70;97.90;;;;;;6241121;23;20437;-69
2024/01/29 07:49:28;;;;;;;9.65;5.15;;;3.80;97.80;;;;;;6241199;23;20479;-69
2024/01/29 07:52:13;;;;;;;8.48;5.32;;;3.90;97.80;;;;;;6242650;23;20058;-68
2024/01/29 07:54:59;;;;;;;9.93;4.63;;;3.90;97.80;;;;;;6240989;23;20106;-68
2024/01/29 07:57:45;;;;;;;13.70;5.32;;;4.00;97.80;;;;;;6239679;23;20034;-69
2024/01/29 08:00:31;;;;;;;15.93;5.93;;;4.00;97.70;;;;;;6243254;23;20020;-69
2024/01/29 08:03:17;;;;;;;12.57;5.63;;;4.10;97.70;;;;;;6248177;23;20008;-69
2024/01/29 08:06:03;;;;;;;20.23;6.78;;;4.20;97.90;;;;;;6265072;23;20012;-68
2024/01/29 08:08:49;;;;;;;44.75;11.20;;;4.20;97.60;;;;;;6253089;23;20007;-68
2024/01/29 08:11:36;;;;;;;19.85;7.55;;;4.30;97.50;;;;;;6242454;23;20008;-69
2024/01/29 08:14:22;;;;;;;9.88;5.53;;;4.30;97.40;;;;;;6243983;23;20004;-68
2024/01/29 08:17:08;;;;;;;17.45;5.47;;;4.40;97.30;;;;;;6241847;23;20086;-69
2024/01/29 08:19:54;;;;;;;17.45;5.88;;;4.40;97.30;;;;;;6240595;23;20016;-67
2024/01/29 08:22:40;;;;;;;10.93;4.80;;;4.50;97.20;;;;;;6241432;23;20066;-68
2024/01/29 08:25:26;;;;;;;8.07;5.10;;;4.50;97.10;;;;;;6241244;23;20019;-66
2024/01/29 08:28:12;;;;;;;11.07;5.65;;;4.60;97.00;;;;;;6240867;23;20368;-69
2024/01/29 08:30:59;;;;;;;11.02;5.40;;;4.60;97.00;;;;;;6239519;23;20087;-69
2024/01/29 08:33:45;;;;;;;11.85;5.15;;;4.70;97.00;;;;;;6242991;23;20138;-69
2024/01/29 08:36:31;;;;;;;9.02;5.78;;;4.80;96.90;;;;;;6239707;23;20020;-69
2024/01/29 08:39:17;;;;;;;8.55;4.75;;;4.90;96.80;;;;;;6240867;23;20102;-68
2024/01/29 08:42:06;;;;;;;7.95;4.60;;;4.90;96.70;;;;;;6241578;23;20016;-69
2024/01/29 08:44:56;;;;;;;10.13;4.38;;;5.00;96.60;;;;;;6239927;23;20012;-69
2024/01/29 08:47:41;;;;;;;8.60;4.65;;;5.10;96.60;;;;;;6241250;23;20004;-69
2024/01/29 08:50:27;;;;;;;11.98;4.95;;;5.10;96.50;;;;;;6240327;23;20405;-68
2024/01/29 08:53:14;;;;;;;7.97;5.00;;;5.20;96.40;;;;;;6242636;23;20130;-69
2024/01/29 08:56:00;;;;;;;7.20;4.15;;;5.20;96.30;;;;;;6240589;23;20016;-69
2024/01/29 08:58:46;;;;;;;8.02;4.78;;;5.30;96.20;;;;;;6241702;23;20032;-69
2024/01/29 09:01:32;;;;;;;9.65;4.68;;;5.40;96.20;;;;;;6240181;23;20020;-69
2024/01/29 09:04:17;;;;;;;9.98;5.03;;;5.40;96.10;;;;;;6239541;23;20016;-68
2024/01/29 09:07:04;;;;;;;8.82;5.00;;;5.50;96.00;;;;;;6242464;23;20162;-69
2024/01/29 09:09:50;;;;;;;7.47;4.15;;;5.60;96.10;;;;;;6241905;23;20096;-69
2024/01/29 09:12:36;;;;;;;9.57;4.35;;;5.60;95.90;;;;;;6239662;23;20008;-69
2024/01/29 09:15:22;;;;;;;8.38;4.70;;;5.70;95.90;;;;;;6218970;23;20117;-68
2024/01/29 09:18:08;;;;;;;13.15;5.88;;;5.70;95.80;;;;;;6239707;23;20008;-68
2024/01/29 09:20:55;;;;;;;8.25;4.72;;;5.70;95.80;;;;;;6240585;23;20441;-66
2024/01/29 09:23:41;;;;;;;10.05;5.00;;;5.80;95.70;;;;;;6240018;23;20441;-67
2024/01/29 09:26:26;;;;;;;9.25;4.78;;;5.90;95.70;;;;;;6238784;23;20448;-67
2024/01/29 09:29:13;;;;;;;9.10;4.70;;;5.90;95.60;;;;;;6240427;23;20018;-69
2024/01/29 09:31:59;;;;;;;7.22;4.82;;;6.00;95.50;;;;;;6239184;23;20008;-69
2024/01/29 09:34:45;;;;;;;8.45;4.20;;;6.00;95.50;;;;;;6239420;23;20265;-69
2024/01/29 09:37:31;;;;;;;7.82;4.05;;;6.10;95.40;;;;;;6241479;23;20016;-68
2024/01/29 09:40:17;;;;;;;9.35;4.40;;;6.10;95.30;;;;;;6244166;23;20015;-66
2024/01/29 09:43:06;;;;;;;9.35;4.50;;;6.20;95.20;;;;;;6242283;23;20004;-66
2024/01/29 09:45:53;;;;;;;7.55;4.97;;;6.20;95.10;;;;;;6242591;23;20016;-67
2024/01/29 09:48:41;;;;;;;8.07;5.30;;;6.30;95.00;;;;;;6243635;23;20012;-67
2024/01/29 09:51:28;;;;;;;8.93;4.57;;;6.40;94.90;;;;;;6222023;23;20006;-67
2024/01/29 09:54:14;;;;;;;9.20;4.80;;;6.40;94.90;;;;;;6240758;23;20433;-68
2024/01/29 09:57:00;;;;;;;8.75;5.13;;;6.40;94.80;;;;;;6241636;23;20094;-67
2024/01/29 09:59:46;;;;;;;7.93;3.97;;;6.50;94.70;;;;;;6242582;23;20008;-68
2024/01/29 10:02:36;;;;;;;5.22;3.97;;;6.60;94.70;;;;;;6241532;23;20020;-68
2024/01/29 10:05:29;;;;;;;8.63;4.45;;;6.60;94.60;;;;;;6244195;23;20008;-67
2024/01/29 10:08:15;;;;;;;12.02;5.75;;;6.70;94.50;;;;;;6243502;23;20400;-68
2024/01/29 10:11:02;;;;;;;7.07;5.07;;;6.80;94.60;;;;;;6242714;23;20095;-67
2024/01/29 10:13:57;;;;;;;8.07;4.30;;;6.80;94.40;;;;;;6221525;23;20008;-68
2024/01/29 10:16:43;;;;;;;7.45;4.47;;;6.90;94.30;;;;;;6240989;23;20012;-66
2024/01/29 10:19:38;;;;;;;10.65;4.78;;;6.90;94.40;;;;;;6219811;23;20016;-66
2024/01/29 10:22:25;;;;;;;7.60;4.30;;;7.00;94.20;;;;;;6242072;23;20067;-69
2024/01/29 10:25:13;;;;;;;6.88;4.15;;;7.10;94.20;;;;;;6241319;23;20381;-68
2024/01/29 10:28:09;;;;;;;11.50;4.40;;;7.10;94.10;;;;;;6243712;23;20047;-67
2024/01/29 10:30:56;;;;;;;9.32;4.78;;;7.20;94.00;;;;;;6242846;23;20512;-68
2024/01/29 10:33:42;;;;;;;9.13;5.22;;;7.20;94.00;;;;;;6240962;23;20503;-68
2024/01/29 10:36:29;;;;;;;9.48;4.38;;;7.30;93.90;;;;;;6242176;23;20515;-68
2024/01/29 10:39:17;;;;;;;11.73;5.22;;;7.40;93.90;;;;;;6243087;23;20376;-68
2024/01/29 10:42:04;;;;;;;8.88;4.90;;;7.40;93.80;;;;;;6241454;23;20027;-68
2024/01/29 10:44:52;;;;;;;7.15;4.47;;;7.50;93.70;;;;;;6242563;23;20024;-68
2024/01/29 10:47:46;;;;;;;7.38;4.00;;;7.50;93.60;;;;;;6242380;23;20023;-62
2024/01/29 10:50:32;;;;;;;8.43;4.22;;;7.70;93.60;;;;;;6241714;23;20083;-61
2024/01/29 10:53:19;;;;;;;7.80;4.32;;;7.80;93.50;;;;;;6242827;23;20012;-60
2024/01/29 10:56:06;;;;;;;7.10;4.18;;;7.80;93.40;;;;;;6241774;23;20111;-60
2024/01/29 10:58:57;;;;;;;8.98;4.40;;;7.90;93.40;;;;;;6243098;23;20004;-60
2024/01/29 11:01:45;;;;;;;9.80;4.28;;;8.00;93.30;;;;;;6241054;23;20013;-60
2024/01/29 11:04:31;;;;;;;9.63;4.95;;;8.10;93.20;;;;;;6242831;23;20004;-60
2024/01/29 11:07:22;;;;;;;9.32;4.60;;;8.20;93.10;;;;;;6243219;23;20004;-60
2024/01/29 11:10:16;;;;;;;13.82;3.92;;;8.30;92.80;;;;;;6242240;23;20005;-60
2024/01/29 11:13:04;;;;;;;9.25;4.10;;;8.40;92.70;;;;;;6240589;23;20019;-60
2024/01/29 11:15:50;;;;;;;6.90;3.80;;;8.50;92.60;;;;;;6242840;23;20018;-61
2024/01/29 11:18:36;;;;;;;6.75;3.97;;;8.60;92.40;;;;;;6249092;23;20062;-61
2024/01/29 11:21:25;;;;;;;6.80;3.47;;;8.60;92.30;;;;;;6250514;23;20091;-61
2024/01/29 11:24:12;;;;;;;7.10;3.97;;;8.80;92.10;;;;;;6241734;23;20012;-61
2024/01/29 11:27:12;;;;;;;6.55;4.03;;;8.80;92.10;;;;;;6237836;23;20460;-61
2024/01/29 11:29:58;;;;;;;7.00;3.85;;;8.90;91.80;;;;;;6237432;23;20399;-61
2024/01/29 11:32:46;;;;;;;4.80;3.33;;;9.00;91.70;;;;;;6241847;23;20434;-60
2024/01/29 11:35:34;;;;;;;5.05;3.60;;;9.10;91.60;;;;;;6242237;23;20019;-61
2024/01/29 11:38:22;;;;;;;5.75;2.90;;;9.10;91.40;;;;;;6241593;23;20091;-61
2024/01/29 11:41:08;;;;;;;6.55;3.50;;;9.20;91.20;;;;;;6242036;23;20016;-61
2024/01/29 11:43:54;;;;;;;5.65;3.67;;;9.30;91.30;;;;;;6241192;23;20087;-61
2024/01/29 11:46:42;;;;;;;5.50;2.88;;;9.40;90.90;;;;;;6242605;23;20465;-61
2024/01/29 11:49:28;;;;;;;5.47;3.17;;;9.50;90.90;;;;;;6240835;23;20011;-61
2024/01/29 11:52:16;;;;;;;8.35;3.25;;;9.60;90.50;;;;;;6241224;23;20345;-60
2024/01/29 11:55:02;;;;;;;6.47;3.92;;;9.70;90.40;;;;;;6241414;23;20078;-62
2024/01/29 11:57:52;;;;;;;7.40;3.03;;;9.80;90.30;;;;;;6220221;23;20074;-62
2024/01/29 12:00:39;;;;;;;5.10;3.33;;;9.90;90.10;;;;;;6242614;23;20468;-61
2024/01/29 12:03:34;;;;;;;6.32;2.90;;;10.00;90.00;;;;;;6239746;23;20008;-61
2024/01/29 12:06:20;;;;;;;7.97;3.90;;;10.10;89.30;;;;;;6241871;23;20019;-61
2024/01/29 12:09:10;;;;;;;6.35;2.75;;;10.20;89.20;;;;;;6240216;23;20004;-61
2024/01/29 12:11:56;;;;;;;8.10;3.10;;;10.30;89.00;;;;;;6243123;23;20012;-61
2024/01/29 12:14:42;;;;;;;7.32;3.13;;;10.40;88.60;;;;;;6219899;23;20032;-61
2024/01/29 12:17:29;;;;;;;6.45;2.60;;;10.50;88.30;;;;;;6241863;23;20456;-61
2024/01/29 12:20:15;;;;;;;7.90;2.83;;;10.60;87.70;;;;;;6241018;23;20122;-61
2024/01/29 12:23:01;;;;;;;6.47;3.03;;;10.60;87.40;;;;;;6240629;23;20016;-60
2024/01/29 12:25:51;;;;;;;5.28;2.25;;;10.70;87.30;;;;;;6241496;23;20333;-61
2024/01/29 12:28:37;;;;;;;4.65;2.75;;;10.80;86.70;;;;;;6242463;23;20266;-61
2024/01/29 12:31:25;;;;;;;5.70;2.40;;;10.80;86.50;;;;;;6240864;23;20008;-61
2024/01/29 12:34:21;;;;;;;6.70;3.60;;;10.80;86.20;;;;;;6218316;23;20449;-60
2024/01/29 12:37:07;;;;;;;3.97;2.63;;;10.80;85.60;;;;;;6241003;23;20035;-61
2024/01/29 12:39:56;;;;;;;6.32;2.60;;;10.90;85.80;;;;;;6242941;23;20066;-69
2024/01/29 12:42:42;;;;;;;4.38;2.45;;;10.90;85.10;;;;;;6240556;23;20078;-68
2024/01/29 12:45:28;;;;;;;4.97;2.42;;;10.90;85.00;;;;;;6240215;23;20020;-69
2024/01/29 12:48:19;;;;;;;4.57;2.30;;;11.00;84.70;;;;;;6240864;23;20012;-69
2024/01/29 12:51:05;;;;;;;3.42;2.55;;;11.00;84.50;;;;;;6240074;23;20333;-69
2024/01/29 12:53:55;;;;;;;4.78;2.40;;;11.00;84.40;;;;;;6241242;23;20012;-70
2024/01/29 12:56:41;;;;;;;5.32;2.83;;;11.00;84.10;;;;;;6241082;23;20008;-69
2024/01/29 12:59:27;;;;;;;4.68;3.08;;;11.00;83.80;;;;;;6240411;23;20019;-69
2024/01/29 13:02:13;;;;;;;6.20;2.70;;;11.00;83.40;;;;;;6219841;23;20392;-69
2024/01/29 13:04:59;;;;;;;5.13;3.00;;;11.00;83.20;;;;;;6240413;23;20083;-68
2024/01/29 13:07:45;;;;;;;3.83;2.70;;;11.00;83.20;;;;;;6240461;23;20044;-69
2024/01/29 13:10:31;;;;;;;4.95;3.22;;;11.00;83.00;;;;;;6239828;23;20071;-67
2024/01/29 13:13:17;;;;;;;5.90;3.55;;;11.00;82.90;;;;;;6240612;23;20008;-67
2024/01/29 13:16:03;;;;;;;6.40;2.97;;;11.00;82.60;;;;;;6240055;23;20012;-67
2024/01/29 13:18:49;;;;;;;5.38;2.85;;;11.10;82.50;;;;;;6241856;23;20437;-67
2024/01/29 13:21:35;;;;;;;4.43;2.50;;;11.10;82.30;;;;;;6219824;23;20057;-67
2024/01/29 13:24:21;;;;;;;6.15;2.95;;;11.10;82.00;;;;;;6239731;23;20019;-66
2024/01/29 13:27:07;;;;;;;5.15;2.97;;;11.20;81.90;;;;;;6240039;23;20019;-66
2024/01/29 13:29:53;;;;;;;6.07;3.50;;;11.20;81.80;;;;;;6240060;23;20008;-67
2024/01/29 13:32:39;;;;;;;6.10;3.47;;;11.20;81.60;;;;;;6240184;23;20445;-67
2024/01/29 13:35:25;;;;;;;7.07;3.13;;;11.30;81.80;;;;;;6240755;23;20008;-67
2024/01/29 13:38:11;;;;;;;4.75;3.45;;;11.30;81.70;;;;;;6241806;23;20690;-67
2024/01/29 13:40:56;;;;;;;5.60;3.22;;;11.30;81.50;;;;;;6241924;23;20356;-67
2024/01/29 13:43:42;;;;;;;6.03;3.40;;;11.30;81.40;;;;;;6239117;23;20569;-67
2024/01/29 13:46:28;;;;;;;8.02;3.35;;;11.30;81.20;;;;;;6238866;23;20047;-67
2024/01/29 13:49:15;;;;;;;5.75;3.00;;;11.30;81.10;;;;;;6240388;23;20190;-67
2024/01/29 13:52:02;;;;;;;5.20;2.92;;;11.40;81.00;;;;;;6240213;23;20016;-67
2024/01/29 13:54:48;;;;;;;5.38;2.85;;;11.40;81.00;;;;;;6241707;23;20083;-67
2024/01/29 13:57:34;;;;;;;4.40;2.63;;;11.30;80.80;;;;;;6240026;23;20012;-67
2024/01/29 14:00:20;;;;;;;5.13;2.70;;;11.30;80.70;;;;;;6241717;23;20008;-66
2024/01/29 14:03:06;;;;;;;5.60;2.85;;;11.40;80.50;;;;;;6236400;23;20441;-67
2024/01/29 14:05:52;;;;;;;7.03;3.22;;;11.40;80.40;;;;;;6239784;23;20008;-62
2024/01/29 14:08:38;;;;;;;4.05;2.42;;;11.40;80.40;;;;;;6217340;23;20012;-62
2024/01/29 14:11:24;;;;;;;7.60;2.70;;;11.40;80.40;;;;;;6219199;23;20023;-62
2024/01/29 14:14:10;;;;;;;4.30;2.50;;;11.40;80.30;;;;;;6240186;23;20012;-62
2024/01/29 14:16:56;;;;;;;5.13;2.60;;;11.40;80.10;;;;;;6241248;23;20008;-61
2024/01/29 14:19:42;;;;;;;5.13;2.70;;;11.40;80.10;;;;;;6238918;23;20012;-62
2024/01/29 14:22:28;;;;;;;5.63;3.17;;;11.30;79.90;;;;;;6241929;23;20016;-63
2024/01/29 14:25:14;;;;;;;6.07;3.00;;;11.30;79.70;;;;;;6240910;23;20011;-62
2024/01/29 14:28:00;;;;;;;4.20;2.53;;;11.30;79.80;;;;;;6243402;23;20044;-62
2024/01/29 14:30:46;;;;;;;7.10;3.65;;;11.40;79.90;;;;;;6243446;23;20043;-62
2024/01/29 14:33:32;;;;;;;5.40;2.63;;;11.30;79.80;;;;;;6240966;23;20070;-62